Time;durP1;ratioP1;P1;durP2;ratioP2;P2;SDS_P1;SDS_P2;PMS_P1;PMS_P2;Temp;Humidity;BMP_temperature;BMP_pressure;BME280_temperature;BME280_humidity;BME280_pressure;Samples;Min_cycle;Max_cycle;Signal;HPM_P1;HPM_P2
2023/04/09 00:01:37;;;;;;;28.13;19.77;;;;;;;5.37;59.16;101501.22;20815589;28;20212;-82
2023/04/09 00:11:39;;;;;;;29.43;20.93;;;;;;;5.77;57.72;101502.38;20809947;28;20193;-82
2023/04/09 00:21:41;;;;;;;29.57;20.83;;;;;;;5.48;58.93;101496.47;20818148;28;20595;-82
2023/04/09 00:31:43;;;;;;;30.60;22.17;;;;;;;5.60;57.05;101503.47;20826693;28;20196;-82
2023/04/09 00:41:45;;;;;;;30.43;22.43;;;;;;;5.44;58.03;101481.34;20812206;28;20243;-81
2023/04/09 00:51:47;;;;;;;29.50;19.97;;;;;;;5.28;56.94;101478.50;20797907;28;20205;-81
2023/04/09 01:01:50;;;;;;;28.57;19.77;;;;;;;4.90;58.43;101484.59;20814750;28;20212;-81
2023/04/09 01:12:09;;;;;;;36.13;23.00;;;;;;;5.20;57.09;101487.47;20811007;28;20655;-80
2023/04/09 01:22:28;;;;;;;29.13;21.70;;;;;;;4.81;56.55;101489.91;20823791;28;20220;-80
2023/04/09 01:32:32;;;;;;;30.20;20.73;;;;;;;4.70;56.95;101484.56;20841013;28;20212;-81
2023/04/09 01:42:35;;;;;;;30.00;21.07;;;;;;;4.44;58.24;101487.25;20826109;28;20224;-80
2023/04/09 01:52:37;;;;;;;27.73;20.10;;;;;;;4.48;56.88;101481.97;20810023;28;20200;-81
2023/04/09 02:02:45;;;;;;;27.90;20.93;;;;;;;4.04;58.49;101482.28;20816747;28;20221;-81
2023/04/09 02:12:50;;;;;;;28.80;19.80;;;;;;;4.19;56.06;101478.75;20817292;28;20258;-81
2023/04/09 02:22:52;;;;;;;26.90;20.43;;;;;;;3.89;56.52;101471.00;20814004;28;20278;-81
2023/04/09 02:32:54;;;;;;;27.53;20.63;;;;;;;3.59;57.84;101473.59;20820024;28;20204;-80
2023/04/09 02:42:57;;;;;;;30.00;21.17;;;;;;;3.77;56.79;101467.56;20821460;28;20221;-81
2023/04/09 02:52:59;;;;;;;30.60;21.13;;;;;;;3.59;56.52;101454.91;20823602;28;20192;-81
2023/04/09 03:03:02;;;;;;;31.33;21.00;;;;;;;3.37;56.59;101452.19;20830799;28;20255;-81
2023/04/09 03:13:04;;;;;;;34.07;23.00;;;;;;;3.23;57.67;101447.31;20825114;28;20497;-81
2023/04/09 03:23:06;;;;;;;29.13;20.73;;;;;;;3.29;55.57;101435.13;20808040;28;20498;-81
2023/04/09 03:33:14;;;;;;;27.50;19.90;;;;;;;3.34;56.47;101435.13;20801443;28;20200;-81
2023/04/09 03:43:29;;;;;;;27.47;20.00;;;;;;;3.59;56.83;101431.72;20816183;28;20225;-81
2023/04/09 03:53:31;;;;;;;27.53;19.37;;;;;;;3.24;57.58;101426.69;20826532;28;20198;-81
2023/04/09 04:03:38;;;;;;;29.93;21.13;;;;;;;3.06;58.32;101431.59;20803644;28;20263;-81
2023/04/09 04:13:45;;;;;;;28.50;19.53;;;;;;;2.78;58.30;101426.28;20775623;28;20227;-82
2023/04/09 04:23:48;;;;;;;28.30;19.03;;;;;;;2.85;56.74;101429.69;20813037;28;20224;-81
2023/04/09 04:33:53;;;;;;;25.93;18.50;;;;;;;2.92;56.21;101430.34;20838330;28;20236;-82
2023/04/09 04:43:56;;;;;;;27.40;18.17;;;;;;;2.75;56.71;101449.06;20828131;28;20225;-81
2023/04/09 04:53:59;;;;;;;26.90;18.43;;;;;;;2.53;56.32;101435.19;20805322;28;20204;-81
2023/04/09 05:04:03;;;;;;;27.67;19.87;;;;;;;2.21;58.92;101446.22;20782685;28;20287;-81
2023/04/09 05:14:08;;;;;;;24.37;17.80;;;;;;;2.35;56.64;101441.94;20787804;28;20223;-81
2023/04/09 05:24:10;;;;;;;25.37;18.83;;;;;;;2.49;57.42;101431.22;20798088;28;20526;-81
2023/04/09 05:34:13;;;;;;;25.33;17.90;;;;;;;2.82;57.35;101441.38;20793579;28;20248;-82
2023/04/09 05:44:20;;;;;;;25.10;18.10;;;;;;;3.04;56.72;101442.16;20786940;28;20216;-82
2023/04/09 05:54:24;;;;;;;23.87;17.67;;;;;;;2.86;58.39;101447.25;20789267;28;20247;-82
2023/04/09 06:04:27;;;;;;;25.33;18.37;;;;;;;3.32;57.62;101448.53;20812447;28;20486;-82
2023/04/09 06:14:31;;;;;;;20.40;17.63;;;;;;;3.19;58.55;101451.78;20820512;28;20255;-81
2023/04/09 06:24:33;;;;;;;23.53;17.23;;;;;;;3.49;58.62;101452.00;20828737;28;20225;-82
2023/04/09 06:34:35;;;;;;;20.97;16.20;;;;;;;3.65;58.27;101451.03;20812551;28;20492;-81
2023/04/09 06:44:38;;;;;;;19.93;14.63;;;;;;;4.07;56.27;101464.13;20822388;28;20208;-82
2023/04/09 06:54:40;;;;;;;19.30;15.00;;;;;;;4.63;55.16;101462.47;20846924;28;20189;-81
2023/04/09 07:04:42;;;;;;;18.03;14.43;;;;;;;5.13;54.05;101452.47;20816420;28;20217;-84
2023/04/09 07:14:44;;;;;;;17.67;13.77;;;;;;;5.58;53.10;101460.91;20801402;28;20205;-83
2023/04/09 07:24:52;;;;;;;18.00;12.97;;;;;;;5.56;53.48;101465.09;20811236;28;20236;-80
2023/04/09 07:34:54;;;;;;;15.10;12.00;;;;;;;6.51;51.39;101471.59;20809532;28;20242;-82
2023/04/09 07:44:57;;;;;;;15.10;11.30;;;;;;;6.66;50.28;101465.09;20792474;28;20225;-80
2023/04/09 07:54:59;;;;;;;13.93;10.90;;;;;;;6.91;48.68;101464.13;20793248;28;20199;-82
2023/04/09 08:05:02;;;;;;;13.23;10.23;;;;;;;7.35;46.51;101452.88;20795414;28;20313;-82
2023/04/09 08:15:04;;;;;;;13.97;9.83;;;;;;;7.82;46.39;101434.47;20786192;28;20197;-80
2023/04/09 08:25:07;;;;;;;12.83;9.87;;;;;;;8.31;44.85;101446.25;20795087;28;20299;-80
2023/04/09 08:35:09;;;;;;;11.15;8.57;;;;;;;8.65;42.85;101437.72;20760640;28;20251;-79
2023/04/09 08:45:12;;;;;;;9.85;7.68;;;;;;;8.60;40.22;101449.00;20792564;28;20291;-82
2023/04/09 08:55:14;;;;;;;9.75;7.50;;;;;;;8.76;40.32;101456.13;20792001;28;20254;-79
2023/04/09 09:05:34;;;;;;;9.85;7.95;;;;;;;8.91;39.67;101440.16;20760587;28;20243;-81
2023/04/09 09:15:36;;;;;;;9.20;7.30;;;;;;;9.26;39.94;101448.03;20780812;28;20200;-80
2023/04/09 09:25:39;;;;;;;9.50;7.25;;;;;;;8.82;39.48;101446.44;20794119;28;20310;-81
2023/04/09 09:35:56;;;;;;;6.40;5.70;;;;;;;8.43;38.79;101440.19;20813769;28;20223;-81
2023/04/09 09:45:59;;;;;;;7.05;5.15;;;;;;;9.65;35.30;101424.28;20784677;28;20618;-81
2023/04/09 09:56:04;;;;;;;6.68;4.88;;;;;;;9.84;34.57;101408.97;20813696;28;20204;-79
2023/04/09 10:06:06;;;;;;;8.27;6.43;;;;;;;9.94;36.21;101407.13;20800087;28;20621;-81
2023/04/09 10:16:10;;;;;;;7.87;6.33;;;;;;;10.16;35.93;101388.31;20811284;28;20200;-79
2023/04/09 10:26:13;;;;;;;8.98;6.53;;;;;;;9.94;36.73;101396.66;20791509;28;20750;-79
2023/04/09 10:36:17;;;;;;;8.00;6.87;;;;;;;10.27;37.63;101389.75;20826849;28;20486;-80
2023/04/09 10:46:35;;;;;;;9.10;7.00;;;;;;;10.43;36.01;101375.31;20820187;28;20223;-81
2023/04/09 10:56:37;;;;;;;7.07;6.33;;;;;;;10.91;35.92;101364.31;20797903;28;20243;-80
2023/04/09 11:06:40;;;;;;;7.67;6.63;;;;;;;11.48;33.76;101358.94;20790271;28;20243;-83
2023/04/09 11:16:46;;;;;;;6.28;5.20;;;;;;;10.66;34.01;101348.81;20822214;28;20694;-81
2023/04/09 11:26:49;;;;;;;6.38;5.45;;;;;;;10.24;34.15;101341.56;20808435;28;20266;-83
2023/04/09 11:36:53;;;;;;;6.00;5.40;;;;;;;11.68;31.36;101328.09;20812664;28;20683;-83
2023/04/09 11:46:57;;;;;;;7.32;6.05;;;;;;;10.22;33.68;101347.53;20796996;28;20261;-81
2023/04/09 11:57:02;;;;;;;7.07;5.90;;;;;;;10.00;34.76;101341.81;20797772;28;20605;-80
2023/04/09 12:07:07;;;;;;;6.35;5.75;;;;;;;10.14;32.95;101331.34;20807008;28;20193;-81
2023/04/09 12:17:10;;;;;;;5.93;5.18;;;;;;;10.51;32.41;101324.59;20808126;28;20208;-80
2023/04/09 12:27:12;;;;;;;6.23;5.57;;;;;;;11.65;30.93;101317.44;20798357;28;20275;-82
2023/04/09 12:37:14;;;;;;;6.18;5.32;;;;;;;11.11;31.85;101318.63;20787119;28;21076;-80
2023/04/09 12:47:17;;;;;;;6.28;5.10;;;;;;;11.69;31.79;101307.16;20800899;28;20620;-79
2023/04/09 12:57:19;;;;;;;5.97;5.38;;;;;;;11.18;31.37;101304.84;20798739;28;20217;-78
2023/04/09 13:07:21;;;;;;;6.00;5.03;;;;;;;12.43;30.80;101300.69;20807712;28;20192;-78
2023/04/09 13:17:24;;;;;;;8.18;6.20;;;;;;;12.12;31.10;101286.66;20809593;28;20273;-70
2023/04/09 13:27:26;;;;;;;5.88;5.28;;;;;;;13.73;28.09;101285.13;20809468;28;20228;-80
2023/04/09 13:37:28;;;;;;;5.22;4.70;;;;;;;12.96;29.78;101274.00;20804390;28;20224;-79
2023/04/09 13:47:30;;;;;;;5.60;5.05;;;;;;;12.47;30.41;101264.88;20814982;28;20550;-79
2023/04/09 13:57:33;;;;;;;5.77;5.17;;;;;;;12.13;30.85;101265.66;20816871;28;20221;-81
2023/04/09 14:07:35;;;;;;;4.63;4.18;;;;;;;12.39;30.34;101258.06;20808497;28;20189;-81
2023/04/09 14:17:38;;;;;;;6.00;4.90;;;;;;;13.01;28.75;101251.22;20799112;28;20252;-81
2023/04/09 14:27:40;;;;;;;4.53;4.10;;;;;;;13.31;28.00;101243.63;20794588;28;20568;-79
2023/04/09 14:37:43;;;;;;;4.70;4.30;;;;;;;11.81;29.93;101235.78;20804068;28;20263;-81
2023/04/09 14:47:45;;;;;;;4.90;4.40;;;;;;;13.14;28.97;101232.31;20797276;28;20193;-82
2023/04/09 14:57:47;;;;;;;5.07;4.57;;;;;;;12.08;29.44;101214.88;20809036;28;20509;-81
2023/04/09 15:07:50;;;;;;;4.32;3.92;;;;;;;12.12;29.79;101207.38;20811301;28;20505;-81
2023/04/09 15:17:52;;;;;;;6.00;3.95;;;;;;;11.83;29.87;101210.00;20796112;28;20266;-81
2023/04/09 15:27:54;;;;;;;4.43;4.03;;;;;;;12.27;30.04;101203.28;20809208;28;20228;-82
2023/04/09 15:37:57;;;;;;;4.85;4.25;;;;;;;11.74;30.52;101217.66;20812934;28;20224;-78
2023/04/09 15:47:59;;;;;;;4.28;3.88;;;;;;;11.82;30.25;101209.16;20815107;28;20192;-81
2023/04/09 15:58:01;;;;;;;4.50;4.10;;;;;;;11.62;29.18;101204.16;20818539;28;20217;-80
2023/04/09 16:08:03;;;;;;;4.45;4.05;;;;;;;11.67;30.51;101207.63;20812760;28;20193;-80
2023/04/09 16:18:05;;;;;;;4.07;3.67;;;;;;;11.73;30.16;101194.19;20816517;28;20246;-81
2023/04/09 16:28:07;;;;;;;3.92;3.30;;;;;;;11.38;30.42;101210.22;20814837;28;20220;-81
2023/04/09 16:38:10;;;;;;;5.05;4.18;;;;;;;12.13;30.56;101209.06;20796434;28;20252;-81
2023/04/09 16:48:12;;;;;;;5.05;3.70;;;;;;;11.11;31.51;101204.75;20806792;28;20258;-78
2023/04/09 16:58:14;;;;;;;3.95;3.55;;;;;;;10.74;32.05;101189.91;20822539;28;20208;-78
2023/04/09 17:08:17;;;;;;;3.80;3.43;;;;;;;11.51;30.84;101161.19;20796193;28;20219;-79
2023/04/09 17:18:19;;;;;;;4.10;3.70;;;;;;;11.43;30.54;101162.00;20803612;28;20298;-80
2023/04/09 17:28:21;;;;;;;4.05;3.58;;;;;;;10.23;33.01;101162.94;20807726;28;20454;-82
2023/04/09 17:38:25;;;;;;;4.60;4.17;;;;;;;10.27;33.04;101183.75;20787677;28;20326;-81
2023/04/09 17:48:28;;;;;;;4.05;3.60;;;;;;;9.96;32.94;101185.59;20803238;28;20537;-82
2023/04/09 17:58:33;;;;;;;3.95;3.58;;;;;;;9.68;34.10;101193.31;20808638;28;20338;-83
2023/04/09 18:08:35;;;;;;;3.40;3.10;;;;;;;10.21;33.73;101193.47;20822305;28;20671;-81
2023/04/09 18:18:38;;;;;;;3.90;3.45;;;;;;;10.61;33.02;101202.09;20823367;28;20494;-80
2023/04/09 18:28:40;;;;;;;3.90;3.10;;;;;;;10.58;32.56;101208.41;20821373;28;20493;-80
2023/04/09 18:38:42;;;;;;;4.25;3.60;;;;;;;10.32;33.40;101210.19;20825269;28;20247;-80
2023/04/09 18:48:49;;;;;;;3.93;3.30;;;;;;;10.21;35.08;101201.94;20819641;28;20201;-80
2023/04/09 18:58:51;;;;;;;4.70;4.20;;;;;;;9.58;35.78;101213.25;20807508;28;20220;-81
2023/04/09 19:08:56;;;;;;;6.85;6.15;;;;;;;9.85;34.49;101218.84;20803510;28;20235;-78
2023/04/09 19:18:59;;;;;;;9.13;8.23;;;;;;;9.59;35.27;101211.28;20820422;28;20220;-80
2023/04/09 19:29:02;;;;;;;6.15;5.20;;;;;;;9.39;36.51;101229.41;20805850;28;20204;-81
2023/04/09 19:39:04;;;;;;;7.20;5.40;;;;;;;8.99;38.27;101233.84;20819871;28;20251;-79
2023/04/09 19:49:06;;;;;;;5.75;5.25;;;;;;;8.85;37.92;101216.94;20811071;28;20193;-80
2023/04/09 19:59:08;;;;;;;5.53;4.60;;;;;;;9.01;36.88;101220.31;20833187;28;20212;-82
2023/04/09 20:09:11;;;;;;;5.20;4.70;;;;;;;8.87;37.40;101214.66;20803293;28;20192;-80
2023/04/09 20:19:13;;;;;;;6.23;4.70;;;;;;;8.75;36.58;101223.59;20811455;28;20286;-79
2023/04/09 20:29:18;;;;;;;6.27;5.67;;;;;;;8.57;38.52;101221.59;20797474;28;20517;-79
2023/04/09 20:39:20;;;;;;;7.95;6.13;;;;;;;8.49;39.38;101217.53;20834042;28;20249;-80
2023/04/09 20:49:22;;;;;;;7.13;6.37;;;;;;;8.28;39.62;101212.53;20805421;28;20192;-80
2023/04/09 20:59:25;;;;;;;7.10;6.40;;;;;;;7.98;39.57;101203.44;20812865;28;20250;-81
2023/04/09 21:09:27;;;;;;;8.43;7.13;;;;;;;8.12;38.45;101207.16;20813667;28;20184;-80
2023/04/09 21:19:30;;;;;;;10.35;8.27;;;;;;;7.93;38.36;101194.22;20813166;28;20240;-80
2023/04/09 21:29:33;;;;;;;11.03;9.77;;;;;;;7.75;40.62;101181.81;20812328;28;20219;-79
2023/04/09 21:39:35;;;;;;;12.50;9.20;;;;;;;7.25;40.52;101186.09;20827385;28;20208;-81
2023/04/09 21:49:39;;;;;;;12.37;9.77;;;;;;;7.17;42.33;101186.78;20830035;28;20189;-81
2023/04/09 21:59:42;;;;;;;20.47;12.43;;;;;;;6.98;41.51;101183.88;20830860;28;20216;-80
2023/04/09 22:09:44;;;;;;;15.63;12.30;;;;;;;7.08;41.10;101189.41;20831057;28;20196;-80
2023/04/09 22:19:46;;;;;;;14.43;12.20;;;;;;;7.03;42.56;101192.28;20826634;28;20310;-82
2023/04/09 22:29:48;;;;;;;16.13;13.30;;;;;;;6.73;43.33;101187.81;20829303;28;20771;-79
2023/04/09 22:39:50;;;;;;;15.50;12.60;;;;;;;6.73;43.91;101174.59;20810088;28;20278;-81
2023/04/09 22:49:53;;;;;;;16.77;12.97;;;;;;;6.78;42.79;101200.97;20826823;28;20597;-82
2023/04/09 22:59:56;;;;;;;16.77;13.33;;;;;;;6.97;42.35;101213.94;20823743;28;20298;-81
2023/04/09 23:09:59;;;;;;;16.70;12.77;;;;;;;6.52;43.42;101219.97;20822211;28;20184;-79
2023/04/09 23:20:01;;;;;;;14.87;12.90;;;;;;;6.32;43.30;101215.34;20822576;28;20545;-80
2023/04/09 23:30:04;;;;;;;17.53;13.80;;;;;;;6.56;43.05;101201.44;20823909;28;20219;-80
2023/04/09 23:40:07;;;;;;;21.63;15.90;;;;;;;6.36;43.48;101194.84;20838717;28;20232;-79
2023/04/09 23:50:09;;;;;;;28.77;19.57;;;;;;;6.13;43.85;101194.75;20819936;28;20256;-80
